Time,TemperatureF,DewpointF,PressureIn,WindDirection,WindDirectionDegrees,WindSpeedMPH,WindSpeedGustMPH,Humidity,HourlyPrecipIn,Conditions,Clouds,dailyrainin,SoftwareType,DateUTC
2013-08-11 00:04:00,65.7,60.0,30.18,North,0,0.0,0.0,82,0.00,,,0.00,WUHU21623XXSP,2013-08-11 05:04:00,
2013-08-11 00:09:00,65.5,59.8,30.18,North,0,0.0,0.0,82,0.00,,,0.00,WUHU21623XXSP,2013-08-11 05:09:00,
2013-08-11 00:14:00,65.5,59.5,30.18,North,0,0.0,0.0,81,0.00,,,0.00,WUHU21623XXSP,2013-08-11 05:14:00,
2013-08-11 00:19:00,65.3,59.3,30.18,North,0,0.0,0.0,81,0.00,,,0.00,WUHU21623XXSP,2013-08-11 05:19:00,
2013-08-11 00:24:00,65.1,59.5,30.18,North,0,0.0,0.0,82,0.00,,,0.00,WUHU21623XXSP,2013-08-11 05:24:00,
2013-08-11 00:30:00,65.1,59.5,30.18,North,0,0.0,0.0,82,0.00,,,0.00,WUHU21623XXSP,2013-08-11 05:30:00,
2013-08-11 00:35:00,64.9,59.3,30.17,North,0,0.0,0.0,82,0.00,,,0.00,WUHU21623XXSP,2013-08-11 05:35:00,
2013-08-11 00:40:00,64.9,59.3,30.17,North,0,0.0,0.0,82,0.00,,,0.00,WUHU21623XXSP,2013-08-11 05:40:00,
2013-08-11 00:46:00,64.9,59.3,30.18,North,0,0.0,0.0,82,0.00,,,0.00,WUHU21623XXSP,2013-08-11 05:46:00,
2013-08-11 00:51:00,64.8,58.8,30.18,North,0,0.0,0.0,81,0.00,,,0.00,WUHU21623XXSP,2013-08-11 05:51:00,
2013-08-11 00:56:00,64.8,58.8,30.17,North,0,0.0,0.0,81,0.00,,,0.00,WUHU21623XXSP,2013-08-11 05:56:00,
2013-08-11 01:01:00,64.8,58.8,30.17,North,0,0.0,0.0,81,0.00,,,0.00,WUHU21623XXSP,2013-08-11 06:01:00,
2013-08-11 01:06:00,64.8,58.8,30.17,North,0,0.0,0.0,81,0.00,,,0.00,WUHU21623XXSP,2013-08-11 06:06:00,
2013-08-11 01:11:00,64.8,58.8,30.18,North,0,0.0,0.0,81,0.00,,,0.00,WUHU21623XXSP,2013-08-11 06:11:00,
2013-08-11 01:16:00,64.8,58.5,30.17,North,0,0.0,0.0,80,0.00,,,0.00,WUHU21623XXSP,2013-08-11 06:16:00,
2013-08-11 01:21:00,64.8,58.5,30.17,North,0,0.0,0.0,80,0.00,,,0.00,WUHU21623XXSP,2013-08-11 06:21:00,
2013-08-11 01:26:00,64.8,58.5,30.17,North,0,0.0,0.0,80,0.00,,,0.00,WUHU21623XXSP,2013-08-11 06:26:00,
2013-08-11 01:31:00,64.6,58.3,30.17,North,0,0.0,0.0,80,0.00,,,0.00,WUHU21623XXSP,2013-08-11 06:31:00,
2013-08-11 01:36:00,64.6,58.3,30.16,North,0,0.0,0.0,80,0.00,,,0.00,WUHU21623XXSP,2013-08-11 06:36:00,
2013-08-11 01:41:00,64.4,58.4,30.16,North,0,0.0,0.0,81,0.00,,,0.00,WUHU21623XXSP,2013-08-11 06:41:00,
2013-08-11 01:46:00,64.2,58.3,30.16,North,0,0.0,0.0,81,0.00,,,0.00,WUHU21623XXSP,2013-08-11 06:46:00,
2013-08-11 01:51:00,64.2,58.6,30.16,North,0,0.0,0.0,82,0.00,,,0.00,WUHU21623XXSP,2013-08-11 06:51:00,
2013-08-11 01:57:00,64.0,58.4,30.16,North,0,0.0,0.0,82,0.00,,,0.00,WUHU21623XXSP,2013-08-11 06:57:00,
2013-08-11 02:02:00,63.9,58.2,30.16,North,0,0.0,0.0,82,0.00,,,0.00,WUHU21623XXSP,2013-08-11 07:02:00,
2013-08-11 02:07:00,63.7,58.1,30.16,North,0,0.0,0.0,82,0.00,,,0.00,WUHU21623XXSP,2013-08-11 07:07:00,
2013-08-11 02:12:00,63.5,58.1,30.16,North,0,0.0,0.0,82,0.00,,,0.00,WUHU21623XXSP,2013-08-11 07:12:00,
2013-08-11 02:17:00,63.3,57.7,30.16,North,0,0.0,0.0,82,0.00,,,0.00,WUHU21623XXSP,2013-08-11 07:17:00,
2013-08-11 02:22:00,63.1,57.5,30.16,North,0,0.0,0.0,82,0.00,,,0.00,WUHU21623XXSP,2013-08-11 07:22:00,
2013-08-11 02:27:00,63.1,57.5,30.17,North,0,0.0,0.0,82,0.00,,,0.00,WUHU21623XXSP,2013-08-11 07:27:00,
2013-08-11 02:32:00,63.1,57.9,30.17,North,0,0.0,0.0,83,0.00,,,0.00,WUHU21623XXSP,2013-08-11 07:32:00,
2013-08-11 02:37:00,63.0,58.0,30.16,North,0,0.0,0.0,84,0.00,,,0.00,WUHU21623XXSP,2013-08-11 07:37:00,
2013-08-11 02:42:00,63.0,58.0,30.16,North,0,0.0,0.0,84,0.00,,,0.00,WUHU21623XXSP,2013-08-11 07:42:00,
2013-08-11 02:47:00,62.8,57.8,30.16,North,0,0.0,0.0,84,0.00,,,0.00,WUHU21623XXSP,2013-08-11 07:47:00,
2013-08-11 02:52:00,62.8,57.8,30.16,North,0,0.0,0.0,84,0.00,,,0.00,WUHU21623XXSP,2013-08-11 07:52:00,
2013-08-11 02:58:00,62.4,57.5,30.16,North,0,0.0,0.0,84,0.00,,,0.00,WUHU21623XXSP,2013-08-11 07:58:00,
2013-08-11 03:03:00,62.4,57.5,30.16,North,0,0.0,0.0,84,0.00,,,0.00,WUHU21623XXSP,2013-08-11 08:03:00,
2013-08-11 03:08:00,62.4,57.8,30.16,North,0,0.0,0.0,85,0.00,,,0.00,WUHU21623XXSP,2013-08-11 08:08:00,
2013-08-11 03:13:00,62.2,57.7,30.16,North,0,0.0,0.0,85,0.00,,,0.00,WUHU21623XXSP,2013-08-11 08:13:00,
2013-08-11 03:18:00,62.2,57.7,30.16,North,0,0.0,0.0,85,0.00,,,0.00,WUHU21623XXSP,2013-08-11 08:18:00,
2013-08-11 03:23:00,62.1,57.5,30.16,North,0,0.0,0.0,85,0.00,,,0.00,WUHU21623XXSP,2013-08-11 08:23:00,
2013-08-11 03:28:00,61.9,57.3,30.16,North,0,0.0,0.0,85,0.00,,,0.00,WUHU21623XXSP,2013-08-11 08:28:00,
2013-08-11 03:33:00,61.9,57.3,30.16,North,0,0.0,0.0,85,0.00,,,0.00,WUHU21623XXSP,2013-08-11 08:33:00,
2013-08-11 13:26:00,86.2,62.9,30.15,North,0,0.0,0.0,46,0.00,,,0.00,WUHU21623XXSP,2013-08-11 18:26:00,
2013-08-11 13:32:00,86.4,62.9,30.15,North,0,0.0,0.0,46,0.00,,,0.00,WUHU21623XXSP,2013-08-11 18:32:00,
2013-08-11 13:38:00,86.5,63.3,30.14,North,0,0.0,0.0,46,0.00,,,0.00,WUHU21623XXSP,2013-08-11 18:38:00,
2013-08-11 13:43:00,86.7,63.4,30.14,North,0,0.0,0.0,46,0.00,,,0.00,WUHU21623XXSP,2013-08-11 18:43:00,
2013-08-11 13:48:00,86.5,62.6,30.14,North,0,0.0,0.0,45,0.00,,,0.00,WUHU21623XXSP,2013-08-11 18:48:00,
2013-08-11 13:53:00,86.4,63.1,30.14,North,0,0.0,0.0,46,0.00,,,0.00,WUHU21623XXSP,2013-08-11 18:53:00,
2013-08-11 18:40:00,86.0,64.0,30.07,North,0,0.0,0.0,48,0.00,,,0.00,WUHU21623XXSP,2013-08-11 23:40:00,
2013-08-11 18:45:00,85.8,63.9,30.07,North,0,0.0,0.0,48,0.00,,,0.00,WUHU21623XXSP,2013-08-11 23:45:00,
2013-08-11 18:51:00,85.8,64.5,30.07,North,0,0.0,0.0,49,0.00,,,0.00,WUHU21623XXSP,2013-08-11 23:51:00,
2013-08-11 18:56:00,85.6,64.3,30.07,North,0,0.0,0.0,49,0.00,,,0.00,WUHU21623XXSP,2013-08-11 23:56:00,
2013-08-11 19:01:00,85.1,63.9,30.06,North,0,0.0,0.0,49,0.00,,,0.00,WUHU21623XXSP,2013-08-12 00:01:00,
2013-08-11 19:06:00,84.6,64.2,30.06,North,0,0.0,0.0,50,0.00,,,0.00,WUHU21623XXSP,2013-08-12 00:06:00,
2013-08-11 19:11:00,84.0,64.0,30.06,North,0,0.0,0.0,51,0.00,,,0.00,WUHU21623XXSP,2013-08-12 00:11:00,
2013-08-11 19:16:00,83.8,63.8,30.06,North,0,0.0,0.0,51,0.00,,,0.00,WUHU21623XXSP,2013-08-12 00:16:00,
2013-08-11 19:21:00,83.5,64.0,30.06,North,0,0.0,0.0,52,0.00,,,0.00,WUHU21623XXSP,2013-08-12 00:21:00,
2013-08-11 19:26:00,83.1,64.2,30.06,North,0,0.0,0.0,53,0.00,,,0.00,WUHU21623XXSP,2013-08-12 00:26:00,
2013-08-11 19:31:00,82.9,64.0,30.05,North,0,0.0,0.0,53,0.00,,,0.00,WUHU21623XXSP,2013-08-12 00:31:00,
2013-08-11 19:36:00,82.4,63.4,30.06,North,0,0.0,0.0,53,0.00,,,0.00,WUHU21623XXSP,2013-08-12 00:36:00,
2013-08-11 19:41:00,82.2,63.8,30.06,North,0,0.0,0.0,54,0.00,,,0.00,WUHU21623XXSP,2013-08-12 00:41:00,
2013-08-11 19:46:00,81.7,63.8,30.06,North,0,0.0,0.0,55,0.00,,,0.00,WUHU21623XXSP,2013-08-12 00:46:00,
2013-08-11 19:51:00,81.1,63.4,30.06,North,0,0.0,0.0,55,0.00,,,0.00,WUHU21623XXSP,2013-08-12 00:51:00,
2013-08-11 19:57:00,80.8,63.6,30.07,North,0,0.0,0.0,56,0.00,,,0.00,WUHU21623XXSP,2013-08-12 00:57:00,
2013-08-11 20:02:00,80.4,63.2,30.07,North,0,0.0,0.0,56,0.00,,,0.00,WUHU21623XXSP,2013-08-12 01:02:00,
2013-08-11 20:07:00,79.9,63.3,30.07,North,0,0.0,0.0,57,0.00,,,0.00,WUHU21623XXSP,2013-08-12 01:07:00,
2013-08-11 20:12:00,79.5,62.9,30.07,North,0,0.0,0.0,57,0.00,,,0.00,WUHU21623XXSP,2013-08-12 01:12:00,
2013-08-11 20:17:00,79.2,63.3,30.06,North,0,0.0,0.0,58,0.00,,,0.00,WUHU21623XXSP,2013-08-12 01:17:00,
2013-08-11 20:22:00,78.8,63.0,30.07,North,0,0.0,0.0,58,0.00,,,0.00,WUHU21623XXSP,2013-08-12 01:22:00,
2013-08-11 20:27:00,78.6,62.6,30.06,North,0,0.0,0.0,58,0.00,,,0.00,WUHU21623XXSP,2013-08-12 01:27:00,
2013-08-11 20:32:00,78.4,63.0,30.07,North,0,0.0,0.0,59,0.00,,,0.00,WUHU21623XXSP,2013-08-12 01:32:00,
2013-08-11 20:37:00,77.9,62.6,30.07,North,0,0.0,0.0,59,0.00,,,0.00,WUHU21623XXSP,2013-08-12 01:37:00,
2013-08-11 20:42:00,77.5,62.6,30.06,North,0,0.0,0.0,60,0.00,,,0.00,WUHU21623XXSP,2013-08-12 01:42:00,
2013-08-11 20:47:00,77.5,62.6,30.07,North,0,0.0,0.0,60,0.00,,,0.00,WUHU21623XXSP,2013-08-12 01:47:00,
2013-08-11 20:53:00,77.2,62.2,30.07,North,0,0.0,0.0,60,0.00,,,0.00,WUHU21623XXSP,2013-08-12 01:53:00,
2013-08-11 20:59:00,76.8,61.9,30.07,North,0,0.0,0.0,60,0.00,,,0.00,WUHU21623XXSP,2013-08-12 01:59:00,
2013-08-11 21:04:00,76.6,61.7,30.07,North,0,0.0,0.0,60,0.00,,,0.00,WUHU21623XXSP,2013-08-12 02:04:00,
2013-08-11 21:09:00,76.3,62.3,30.07,North,0,0.0,0.0,62,0.00,,,0.00,WUHU21623XXSP,2013-08-12 02:09:00,
2013-08-11 21:14:00,76.1,62.7,30.07,North,0,0.0,0.0,63,0.00,,,0.00,WUHU21623XXSP,2013-08-12 02:14:00,
2013-08-11 21:19:00,75.9,62.4,30.07,North,0,0.0,0.0,63,0.00,,,0.00,WUHU21623XXSP,2013-08-12 02:19:00,
2013-08-11 21:24:00,75.7,62.7,30.08,North,0,0.0,0.0,64,0.00,,,0.00,WUHU21623XXSP,2013-08-12 02:24:00,
2013-08-11 21:29:00,75.6,62.1,30.08,North,0,0.0,0.0,63,0.00,,,0.00,WUHU21623XXSP,2013-08-12 02:29:00,
2013-08-11 21:34:00,75.4,62.3,30.07,North,0,0.0,0.0,64,0.00,,,0.00,WUHU21623XXSP,2013-08-12 02:34:00,
2013-08-11 21:39:00,75.4,62.3,30.07,North,0,0.0,0.0,64,0.00,,,0.00,WUHU21623XXSP,2013-08-12 02:39:00,
2013-08-11 21:45:00,75.2,62.3,30.08,North,0,0.0,0.0,63,0.00,,,0.00,WUHU21623XXSP,2013-08-12 02:45:00,
2013-08-11 21:50:00,75.0,61.6,30.08,North,0,0.0,0.0,63,0.00,,,0.00,WUHU21623XXSP,2013-08-12 02:50:00,
2013-08-11 21:55:00,75.0,61.6,30.08,North,0,0.0,0.0,63,0.00,,,0.00,WUHU21623XXSP,2013-08-12 02:55:00,
2013-08-11 22:00:00,74.8,61.4,30.08,North,0,0.0,0.0,63,0.00,,,0.00,WUHU21623XXSP,2013-08-12 03:00:00,
2013-08-11 22:05:00,74.8,61.4,30.09,North,0,0.0,0.0,63,0.00,,,0.00,WUHU21623XXSP,2013-08-12 03:05:00,
2013-08-11 22:10:00,74.5,61.2,30.09,North,0,0.0,0.0,64,0.00,,,0.00,WUHU21623XXSP,2013-08-12 03:10:00,
2013-08-11 22:15:00,74.5,61.5,30.09,North,0,0.0,0.0,64,0.00,,,0.00,WUHU21623XXSP,2013-08-12 03:15:00,
2013-08-11 22:20:00,74.3,61.3,30.08,North,0,0.0,0.0,64,0.00,,,0.00,WUHU21623XXSP,2013-08-12 03:20:00,
2013-08-11 22:25:00,74.1,61.1,30.08,North,0,0.0,0.0,64,0.00,,,0.00,WUHU21623XXSP,2013-08-12 03:25:00,
2013-08-11 22:31:00,74.1,61.6,30.09,North,0,0.0,0.0,65,0.00,,,0.00,WUHU21623XXSP,2013-08-12 03:31:00,
2013-08-11 22:36:00,73.9,61.4,30.09,North,0,0.0,0.0,65,0.00,,,0.00,WUHU21623XXSP,2013-08-12 03:36:00,
2013-08-11 22:41:00,73.8,61.7,30.09,North,0,0.0,0.0,66,0.00,,,0.00,WUHU21623XXSP,2013-08-12 03:41:00,
2013-08-11 22:46:00,73.6,61.5,30.09,North,0,0.0,0.0,66,0.00,,,0.00,WUHU21623XXSP,2013-08-12 03:46:00,
2013-08-11 22:52:00,73.4,61.3,30.09,North,0,0.0,0.0,66,0.00,,,0.00,WUHU21623XXSP,2013-08-12 03:52:00,
2013-08-11 22:57:00,73.2,61.6,30.09,North,0,0.0,0.0,67,0.00,,,0.00,WUHU21623XXSP,2013-08-12 03:57:00,
2013-08-11 23:02:00,73.0,61.4,30.09,North,0,0.0,0.0,67,0.00,,,0.00,WUHU21623XXSP,2013-08-12 04:02:00,
2013-08-11 23:04:00,73.0,61.9,30.09,North,0,0.0,0.0,68,0.00,,,0.00,WUHU21623XXSP,2013-08-12 04:04:00,
2013-08-11 23:09:00,72.7,61.7,30.08,North,0,0.0,0.0,68,0.00,,,0.00,WUHU21623XXSP,2013-08-12 04:09:00,
2013-08-11 23:12:00,72.5,61.4,30.09,North,0,0.0,0.0,68,0.00,,,0.00,WUHU21623XXSP,2013-08-12 04:12:00,
2013-08-11 23:14:00,72.3,61.2,30.08,North,0,0.0,0.0,68,0.00,,,0.00,WUHU21623XXSP,2013-08-12 04:14:00,
2013-08-11 23:19:00,72.3,61.6,30.09,North,0,0.0,0.0,69,0.00,,,0.00,WUHU21623XXSP,2013-08-12 04:19:00,
2013-08-11 23:24:00,72.1,61.9,30.08,North,0,0.0,0.0,70,0.00,,,0.00,WUHU21623XXSP,2013-08-12 04:24:00,
2013-08-11 23:29:00,72.0,61.7,30.09,North,0,0.0,0.0,70,0.00,,,0.00,WUHU21623XXSP,2013-08-12 04:29:00,
2013-08-11 23:34:00,71.8,61.5,30.08,North,0,0.0,0.0,70,0.00,,,0.00,WUHU21623XXSP,2013-08-12 04:34:00,
2013-08-11 23:39:00,71.6,61.7,30.08,North,0,0.0,0.0,71,0.00,,,0.00,WUHU21623XXSP,2013-08-12 04:39:00,
2013-08-11 23:44:00,71.4,61.5,30.08,North,0,0.0,0.0,71,0.00,,,0.00,WUHU21623XXSP,2013-08-12 04:44:00,
2013-08-11 23:49:00,71.4,61.9,30.09,North,0,0.0,0.0,72,0.00,,,0.00,WUHU21623XXSP,2013-08-12 04:49:00,
2013-08-11 23:54:00,71.2,61.7,30.09,North,0,0.0,0.0,72,0.00,,,0.00,WUHU21623XXSP,2013-08-12 04:54:00,
2013-08-11 23:59:00,71.2,61.7,30.08,North,0,0.0,0.0,72,0.00,,,0.00,WUHU21623XXSP,2013-08-12 04:59:00,